createdAt,value
2023-04-06T00:00:01.071Z,7.20
2023-04-06T00:02:29.426Z,7.67
2023-04-06T00:04:57.748Z,7.30
2023-04-06T00:07:26.235Z,7.03
2023-04-06T00:09:54.505Z,7.00
2023-04-06T00:12:22.747Z,6.97
2023-04-06T00:14:51.085Z,6.90
2023-04-06T00:17:20.727Z,6.87
2023-04-06T00:19:48.968Z,7.23
2023-04-06T00:22:17.236Z,6.90
2023-04-06T00:24:45.475Z,6.77
2023-04-06T00:27:13.777Z,7.73
2023-04-06T00:29:42.316Z,6.90
2023-04-06T00:32:11.000Z,8.13
2023-04-06T00:34:40.741Z,7.57
2023-04-06T00:37:08.970Z,7.47
2023-04-06T00:39:37.209Z,7.60
2023-04-06T00:42:10.302Z,7.93
2023-04-06T00:44:38.556Z,7.87
2023-04-06T00:47:06.784Z,6.90
2023-04-06T00:49:35.117Z,7.17
2023-04-06T00:52:04.746Z,7.10
2023-04-06T00:54:33.005Z,7.37
2023-04-06T00:57:01.419Z,7.60
2023-04-06T00:59:30.713Z,7.23
2023-04-06T01:01:59.012Z,7.87
2023-04-06T01:04:27.340Z,7.90
2023-04-06T01:06:55.769Z,7.43
2023-04-06T01:09:25.412Z,7.63
2023-04-06T01:11:53.672Z,7.83
2023-04-06T01:14:21.979Z,7.83
2023-04-06T01:16:50.276Z,7.73
2023-04-06T01:19:18.533Z,7.70
2023-04-06T01:21:46.856Z,7.43
2023-04-06T01:24:16.455Z,7.97
2023-04-06T01:26:44.771Z,7.03
2023-04-06T01:29:13.030Z,7.07
2023-04-06T01:31:41.595Z,7.73
2023-04-06T01:34:09.834Z,8.07
2023-04-06T01:36:38.081Z,7.43
2023-04-06T01:39:06.477Z,7.80
2023-04-06T01:41:36.539Z,8.10
2023-04-06T01:44:04.798Z,7.63
2023-04-06T01:46:33.119Z,8.07
2023-04-06T01:49:01.449Z,7.90
2023-04-06T01:51:29.710Z,7.77
2023-04-06T01:53:57.926Z,7.57
2023-04-06T01:56:26.320Z,7.80
2023-04-06T01:58:56.618Z,8.27
2023-04-06T02:01:24.948Z,8.33
2023-04-06T02:03:53.362Z,7.73
2023-04-06T02:06:21.647Z,7.57
2023-04-06T02:08:49.994Z,7.80
2023-04-06T02:11:18.291Z,7.37
2023-04-06T02:13:46.564Z,7.47
2023-04-06T02:16:16.837Z,7.30
2023-04-06T02:18:45.300Z,7.10
2023-04-06T02:21:13.699Z,7.10
2023-04-06T02:23:42.078Z,6.23
2023-04-06T02:26:10.444Z,7.20
2023-04-06T02:28:38.648Z,7.40
2023-04-06T02:31:06.885Z,7.10
2023-04-06T02:33:36.460Z,7.30
2023-04-06T02:36:04.832Z,7.47
2023-04-06T02:38:33.142Z,7.63
2023-04-06T02:41:01.383Z,7.07
2023-04-06T02:43:29.585Z,6.87
2023-04-06T02:45:57.860Z,7.33
2023-04-06T02:48:26.366Z,6.50
2023-04-06T02:50:56.592Z,6.60
2023-04-06T02:53:24.925Z,7.23
2023-04-06T02:55:53.185Z,6.50
2023-04-06T02:58:21.439Z,7.57
2023-04-06T03:00:49.715Z,6.80
2023-04-06T03:03:18.082Z,7.57
2023-04-06T03:05:46.366Z,6.93
2023-04-06T03:08:16.391Z,7.50
2023-04-06T03:10:44.655Z,6.70
2023-04-06T03:13:12.968Z,7.27
2023-04-06T03:15:41.530Z,7.37
2023-04-06T03:18:09.865Z,6.63
2023-04-06T03:20:38.124Z,6.47
2023-04-06T03:23:06.910Z,6.37
2023-04-06T03:25:37.641Z,6.63
2023-04-06T03:28:06.184Z,6.87
2023-04-06T03:30:34.397Z,7.00
2023-04-06T03:33:02.728Z,5.83
2023-04-06T03:35:31.121Z,6.73
2023-04-06T03:37:59.628Z,6.40
2023-04-06T03:40:27.914Z,6.90
2023-04-06T03:42:57.545Z,6.77
2023-04-06T03:45:25.917Z,6.63
2023-04-06T03:47:54.229Z,6.80
2023-04-06T03:50:22.602Z,5.93
2023-04-06T03:52:50.831Z,6.60
2023-04-06T03:55:19.172Z,6.47
2023-04-06T03:57:47.381Z,6.33
2023-04-06T04:00:17.455Z,6.10
2023-04-06T04:02:45.992Z,7.03
2023-04-06T04:05:14.455Z,6.83
2023-04-06T04:07:42.802Z,6.93
2023-04-06T04:10:11.599Z,6.67
2023-04-06T04:12:39.856Z,6.90
2023-04-06T04:15:08.437Z,6.10
2023-04-06T04:17:38.075Z,6.30
2023-04-06T04:20:06.753Z,6.50
2023-04-06T04:22:35.003Z,7.30
2023-04-06T04:25:03.206Z,7.40
2023-04-06T04:27:31.481Z,6.50
2023-04-06T04:29:59.753Z,6.90
2023-04-06T04:32:28.580Z,6.87
2023-04-06T04:34:58.202Z,6.60
2023-04-06T04:37:26.444Z,6.80
2023-04-06T04:39:54.756Z,7.37
2023-04-06T04:42:23.009Z,6.50
2023-04-06T04:44:51.351Z,6.93
2023-04-06T04:47:19.593Z,7.23
2023-04-06T04:49:47.885Z,7.30
2023-04-06T04:52:17.483Z,6.50
2023-04-06T04:54:47.915Z,7.67
2023-04-06T04:57:16.148Z,7.37
2023-04-06T04:59:45.640Z,6.77
2023-04-06T05:02:13.959Z,7.43
2023-04-06T05:04:42.313Z,7.50
2023-04-06T05:07:10.929Z,7.00
2023-04-06T05:09:40.546Z,6.80
2023-04-06T05:12:09.092Z,7.63
2023-04-06T05:14:37.351Z,7.50
2023-04-06T05:17:05.728Z,7.47
2023-04-06T05:19:34.020Z,7.57
2023-04-06T05:22:02.273Z,7.63
2023-04-06T05:24:30.531Z,7.57
2023-04-06T05:27:01.117Z,7.53
2023-04-06T05:29:29.763Z,7.00
2023-04-06T05:31:58.047Z,6.77
2023-04-06T05:34:26.545Z,7.47
2023-04-06T05:36:54.920Z,6.80
2023-04-06T05:39:23.160Z,7.50
2023-04-06T05:41:51.660Z,7.07
2023-04-06T05:44:21.321Z,7.17
2023-04-06T05:46:49.595Z,6.90
2023-04-06T05:49:17.852Z,7.30
2023-04-06T05:51:46.104Z,6.80
2023-04-06T05:54:14.339Z,7.83
2023-04-06T05:56:42.567Z,6.80
2023-04-06T05:59:11.026Z,6.97
2023-04-06T06:01:40.891Z,7.20
2023-04-06T06:04:09.189Z,6.63
2023-04-06T06:06:37.740Z,6.60
2023-04-06T06:09:06.111Z,6.97
2023-04-06T06:11:34.626Z,7.53
2023-04-06T06:14:02.889Z,6.63
2023-04-06T06:16:31.168Z,6.97
2023-04-06T06:19:00.863Z,7.23
2023-04-06T06:21:29.134Z,6.30
2023-04-06T06:23:57.380Z,6.80
2023-04-06T06:26:25.776Z,6.87
2023-04-06T06:28:54.015Z,6.97
2023-04-06T06:31:23.616Z,7.20
2023-04-06T06:33:52.347Z,6.93
2023-04-06T06:36:21.992Z,7.27
2023-04-06T06:38:50.331Z,7.63
2023-04-06T06:41:18.589Z,6.90
2023-04-06T06:43:46.865Z,8.03
2023-04-06T06:46:15.193Z,6.87
2023-04-06T06:48:43.536Z,7.70
2023-04-06T06:51:12.645Z,8.47
2023-04-06T06:53:42.301Z,7.93
2023-04-06T06:56:10.565Z,7.73
2023-04-06T06:58:38.851Z,6.87
2023-04-06T07:01:07.345Z,7.27
2023-04-06T07:03:35.630Z,7.37
2023-04-06T07:06:03.932Z,7.07
2023-04-06T07:08:32.269Z,7.83
2023-04-06T07:11:01.931Z,7.70
2023-04-06T07:13:30.270Z,6.97
2023-04-06T07:15:58.773Z,7.57
2023-04-06T07:18:27.184Z,7.20
2023-04-06T07:20:55.461Z,7.60
2023-04-06T07:23:23.676Z,7.43
2023-04-06T07:25:54.466Z,8.20
2023-04-06T07:28:24.368Z,7.27
2023-04-06T07:30:52.646Z,7.70
2023-04-06T07:33:20.864Z,7.93
2023-04-06T07:35:49.375Z,7.53
2023-04-06T07:38:17.671Z,7.73
2023-04-06T07:40:46.101Z,7.27
2023-04-06T07:43:14.781Z,7.77
2023-04-06T07:45:44.432Z,7.30
2023-04-06T07:48:12.754Z,7.70
2023-04-06T07:50:41.173Z,7.10
2023-04-06T07:53:09.739Z,6.97
2023-04-06T07:55:38.048Z,7.33
2023-04-06T07:58:06.433Z,7.33
2023-04-06T08:00:34.712Z,7.60
2023-04-06T08:03:04.423Z,7.60
2023-04-06T08:05:32.788Z,8.40
2023-04-06T08:08:01.111Z,7.27
2023-04-06T08:10:29.386Z,7.67
2023-04-06T08:12:57.662Z,7.40
2023-04-06T08:15:26.343Z,8.47
2023-04-06T08:17:58.097Z,7.80
2023-04-06T08:20:27.804Z,7.83
2023-04-06T08:22:56.186Z,7.90
2023-04-06T08:25:24.536Z,7.63
2023-04-06T08:27:52.789Z,8.03
2023-04-06T08:30:21.897Z,7.63
2023-04-06T08:32:50.937Z,7.13
2023-04-06T08:35:19.560Z,8.30
2023-04-06T08:37:49.228Z,7.80
2023-04-06T08:40:17.664Z,7.23
2023-04-06T08:42:49.690Z,7.67
2023-04-06T08:45:18.855Z,8.40
2023-04-06T08:47:47.537Z,7.90
2023-04-06T08:50:16.055Z,7.40
2023-04-06T08:52:45.806Z,8.30
2023-04-06T08:55:15.547Z,7.60
2023-04-06T08:57:44.227Z,7.27
2023-04-06T09:00:13.986Z,7.50
2023-04-06T09:02:42.880Z,7.30
2023-04-06T09:05:11.877Z,8.93
2023-04-06T09:07:40.414Z,7.50
2023-04-06T09:10:09.029Z,8.40
2023-04-06T09:12:38.733Z,8.67
2023-04-06T09:15:07.492Z,9.00
2023-04-06T09:17:37.621Z,8.27
2023-04-06T09:20:06.473Z,8.73
2023-04-06T09:22:38.383Z,8.30
2023-04-06T09:25:07.229Z,8.77
2023-04-06T09:27:36.108Z,8.73
2023-04-06T09:30:10.909Z,8.90
2023-04-06T09:32:49.109Z,9.43
2023-04-06T09:35:17.464Z,9.07
2023-04-06T09:37:46.658Z,8.50
2023-04-06T09:40:15.752Z,9.23
2023-04-06T09:42:44.671Z,9.67
2023-04-06T09:45:14.440Z,9.33
2023-04-06T09:47:43.071Z,10.20
2023-04-06T09:50:12.131Z,8.70
2023-04-06T09:52:41.041Z,9.70
2023-04-06T09:55:10.469Z,9.83
2023-04-06T09:57:40.686Z,8.70
2023-04-06T10:00:11.587Z,8.97
2023-04-06T10:02:47.474Z,8.03
2023-04-06T10:05:18.829Z,7.90
2023-04-06T10:07:59.676Z,7.53
2023-04-06T10:10:30.011Z,8.60
2023-04-06T10:12:58.990Z,7.03
2023-04-06T10:15:27.272Z,7.07
2023-04-06T10:17:57.180Z,8.03
2023-04-06T10:20:27.563Z,8.30
2023-04-06T10:22:58.009Z,7.13
2023-04-06T10:25:30.283Z,7.10
2023-04-06T10:28:04.493Z,7.73
2023-04-06T10:30:33.384Z,8.50
2023-04-06T10:33:03.242Z,7.53
2023-04-06T10:35:40.101Z,7.70
2023-04-06T10:38:08.639Z,6.53
2023-04-06T10:40:39.191Z,6.77
2023-04-06T10:43:11.150Z,7.10
2023-04-06T10:45:39.521Z,7.57
2023-04-06T10:48:18.682Z,6.93
2023-04-06T10:50:47.630Z,7.00
2023-04-06T10:53:23.323Z,6.60
2023-04-06T10:55:52.458Z,7.00
2023-04-06T10:58:20.701Z,7.10
2023-04-06T11:00:51.138Z,7.40
2023-04-06T11:03:21.355Z,7.67
2023-04-06T11:05:49.832Z,8.40
2023-04-06T11:08:31.073Z,7.90
2023-04-06T11:11:08.962Z,7.47
2023-04-06T11:13:41.272Z,7.07
2023-04-06T11:16:09.769Z,7.93
2023-04-06T11:18:39.810Z,7.50
2023-04-06T11:21:08.366Z,7.37
2023-04-06T11:23:36.596Z,6.70
2023-04-06T11:26:04.860Z,6.63
2023-04-06T11:28:33.130Z,6.77
2023-04-06T11:31:02.126Z,7.43
2023-04-06T11:33:31.392Z,6.77
2023-04-06T11:36:01.626Z,6.67
2023-04-06T11:38:29.991Z,6.77
2023-04-06T11:40:58.310Z,7.67
2023-04-06T11:43:29.335Z,7.30
2023-04-06T11:46:03.070Z,7.70
2023-04-06T11:48:31.671Z,7.33
2023-04-06T11:51:02.042Z,7.37
2023-04-06T11:53:31.058Z,6.90
2023-04-06T11:56:00.599Z,7.40
2023-04-06T11:58:28.907Z,7.43
2023-04-06T12:01:05.559Z,7.40
2023-04-06T12:03:33.990Z,7.67
2023-04-06T12:06:03.773Z,8.03
2023-04-06T12:08:32.073Z,7.80
2023-04-06T12:11:00.787Z,7.80
2023-04-06T12:13:29.693Z,7.57
2023-04-06T12:15:59.072Z,8.07
2023-04-06T12:18:27.370Z,7.37
2023-04-06T12:20:55.702Z,7.13
2023-04-06T12:23:25.410Z,7.47
2023-04-06T12:25:53.949Z,6.30
2023-04-06T12:28:24.147Z,7.20
2023-04-06T12:30:53.514Z,7.30
2023-04-06T12:33:21.921Z,7.10
2023-04-06T12:35:50.510Z,7.47
2023-04-06T12:38:18.786Z,6.73
2023-04-06T12:40:48.426Z,6.90
2023-04-06T12:43:16.666Z,6.40
2023-04-06T12:45:44.926Z,6.43
2023-04-06T12:48:13.240Z,6.03
2023-04-06T12:50:41.485Z,5.70
2023-04-06T12:53:09.701Z,5.70
2023-04-06T12:55:38.053Z,6.20
2023-04-06T12:58:07.713Z,5.43
2023-04-06T13:00:36.237Z,6.67
2023-04-06T13:03:04.577Z,6.10
2023-04-06T13:05:33.694Z,5.97
2023-04-06T13:08:01.999Z,5.33
2023-04-06T13:10:30.328Z,5.50
2023-04-06T13:12:58.627Z,5.53
2023-04-06T13:15:28.309Z,4.83
2023-04-06T13:17:56.858Z,5.67
2023-04-06T13:20:25.735Z,5.10
2023-04-06T13:22:54.014Z,4.90
2023-04-06T13:25:22.241Z,5.70
2023-04-06T13:27:50.844Z,5.17
2023-04-06T13:30:19.348Z,5.30
2023-04-06T13:32:49.093Z,5.37
2023-04-06T13:35:17.653Z,4.90
2023-04-06T13:37:46.271Z,4.73
2023-04-06T13:40:14.745Z,4.33
2023-04-06T13:42:44.977Z,5.10
2023-04-06T13:45:13.569Z,4.73
2023-04-06T13:47:42.175Z,4.67
2023-04-06T13:50:12.210Z,4.57
2023-04-06T13:52:40.488Z,5.40
2023-04-06T13:55:08.980Z,5.60
2023-04-06T13:57:38.802Z,4.90
2023-04-06T14:00:08.389Z,4.80
2023-04-06T14:02:36.984Z,4.70
2023-04-06T14:05:05.311Z,4.80
2023-04-06T14:07:34.819Z,4.60
2023-04-06T14:10:03.127Z,4.60
2023-04-06T14:12:32.532Z,4.07
2023-04-06T14:15:00.850Z,4.83
2023-04-06T14:17:29.334Z,4.07
2023-04-06T14:19:57.618Z,4.13
2023-04-06T14:22:26.040Z,4.53
2023-04-06T14:24:55.564Z,3.90
2023-04-06T14:27:23.981Z,3.90
2023-04-06T14:29:52.138Z,4.10
2023-04-06T14:32:20.360Z,4.00
2023-04-06T14:34:48.507Z,4.33
2023-04-06T14:37:18.435Z,3.80
2023-04-06T14:39:46.886Z,3.43
2023-04-06T14:42:16.478Z,4.10
2023-04-06T14:44:46.193Z,3.53
2023-04-06T14:47:16.547Z,3.60
2023-04-06T14:49:44.851Z,3.10
2023-04-06T14:52:13.079Z,3.10
2023-04-06T14:54:41.235Z,2.83
2023-04-06T14:57:09.430Z,2.80
2023-04-06T14:59:40.177Z,2.90
2023-04-06T15:02:09.072Z,2.80
2023-04-06T15:04:38.030Z,2.90
2023-04-06T15:07:06.604Z,2.80
2023-04-06T15:09:34.785Z,2.60
2023-04-06T15:12:02.997Z,2.47
2023-04-06T15:14:31.212Z,2.53
2023-04-06T15:17:00.698Z,2.17
2023-04-06T15:19:28.871Z,2.50
2023-04-06T15:21:58.153Z,2.30
2023-04-06T15:24:27.798Z,2.20
2023-04-06T15:26:56.444Z,2.23
2023-04-06T15:29:24.616Z,1.87
2023-04-06T15:31:52.765Z,2.10
2023-04-06T15:34:22.293Z,2.50
2023-04-06T15:36:51.699Z,2.20
2023-04-06T15:39:19.925Z,2.50
2023-04-06T15:41:48.104Z,2.17
2023-04-06T15:44:16.339Z,2.30
2023-04-06T15:46:44.492Z,2.27
2023-04-06T15:49:12.708Z,2.33
2023-04-06T15:51:42.981Z,2.50
2023-04-06T15:54:11.144Z,2.40
2023-04-06T15:56:39.330Z,2.00
2023-04-06T15:59:07.484Z,2.27
2023-04-06T16:01:35.733Z,2.63
2023-04-06T16:04:03.991Z,2.30
2023-04-06T16:06:32.580Z,2.40
2023-04-06T16:09:02.279Z,2.33
2023-04-06T16:11:32.213Z,2.50
2023-04-06T16:14:00.825Z,2.40
2023-04-06T16:16:29.298Z,2.43
2023-04-06T16:18:57.607Z,2.30
2023-04-06T16:21:27.934Z,2.20
2023-04-06T16:23:58.023Z,2.40
2023-04-06T16:26:28.834Z,2.40
2023-04-06T16:28:57.215Z,2.03
2023-04-06T16:31:26.393Z,2.20
2023-04-06T16:33:55.469Z,2.10
2023-04-06T16:36:24.224Z,2.10
2023-04-06T16:38:52.475Z,2.10
2023-04-06T16:41:20.960Z,2.17
2023-04-06T16:43:50.641Z,2.27
2023-04-06T16:46:18.808Z,2.20
2023-04-06T16:48:47.132Z,2.40
2023-04-06T16:51:15.839Z,2.27
2023-04-06T16:53:44.293Z,2.40
2023-04-06T16:56:12.539Z,2.10
2023-04-06T16:58:40.807Z,2.10
2023-04-06T17:01:10.413Z,1.90
2023-04-06T17:03:38.673Z,2.13
2023-04-06T17:06:07.311Z,2.07
2023-04-06T17:08:35.485Z,2.20
2023-04-06T17:11:04.623Z,2.30
2023-04-06T17:13:33.227Z,2.00
2023-04-06T17:16:01.518Z,1.60
2023-04-06T17:18:31.165Z,1.97
2023-04-06T17:20:59.517Z,2.10
2023-04-06T17:23:27.688Z,2.20
2023-04-06T17:25:57.565Z,2.37
2023-04-06T17:28:25.852Z,2.17
2023-04-06T17:30:54.353Z,2.17
2023-04-06T17:33:23.537Z,7.57
2023-04-06T17:35:53.084Z,10.43
2023-04-06T17:38:21.470Z,9.97
2023-04-06T17:40:49.617Z,5.63
2023-04-06T17:43:18.016Z,4.40
2023-04-06T17:45:46.361Z,2.47
2023-04-06T17:48:14.505Z,3.70
2023-04-06T17:50:42.808Z,3.83
2023-04-06T17:53:12.303Z,3.17
2023-04-06T17:55:40.490Z,3.33
2023-04-06T17:58:08.627Z,2.40
2023-04-06T18:00:36.902Z,2.50
2023-04-06T18:03:05.176Z,4.60
2023-04-06T18:05:33.437Z,2.80
2023-04-06T18:08:01.770Z,2.37
2023-04-06T18:10:31.295Z,2.33
2023-04-06T18:13:01.357Z,2.43
2023-04-06T18:15:29.608Z,2.57
2023-04-06T18:17:57.886Z,2.70
2023-04-06T18:20:26.367Z,2.77
2023-04-06T18:22:55.717Z,2.70
2023-04-06T18:25:25.288Z,2.37
2023-04-06T18:27:54.836Z,2.93
2023-04-06T18:30:23.194Z,2.90
2023-04-06T18:32:52.770Z,3.27
2023-04-06T18:35:21.038Z,2.63
2023-04-06T18:37:49.194Z,3.30
2023-04-06T18:40:33.107Z,3.50
2023-04-06T18:43:04.172Z,3.53
2023-04-06T18:45:33.544Z,3.83
2023-04-06T18:48:01.876Z,3.60
2023-04-06T18:50:30.070Z,4.27
2023-04-06T18:52:58.236Z,3.90
2023-04-06T18:55:27.013Z,4.00
2023-04-06T18:57:55.435Z,4.03
2023-04-06T19:00:25.010Z,3.73
2023-04-06T19:02:53.404Z,3.70
2023-04-06T19:05:22.579Z,3.87
2023-04-06T19:07:52.536Z,4.03
2023-04-06T19:10:21.321Z,4.10
2023-04-06T19:12:49.661Z,3.70
2023-04-06T19:15:17.851Z,3.90
2023-04-06T19:17:47.785Z,4.03
2023-04-06T19:20:16.117Z,3.83
2023-04-06T19:22:44.709Z,4.40
2023-04-06T19:25:12.913Z,4.57
2023-04-06T19:27:41.246Z,4.37
2023-04-06T19:30:10.412Z,4.10
2023-04-06T19:32:38.695Z,4.43
2023-04-06T19:35:08.600Z,4.13
2023-04-06T19:37:37.750Z,4.20
2023-04-06T19:40:07.624Z,4.50
2023-04-06T19:42:36.798Z,4.87
2023-04-06T19:45:05.219Z,5.67
2023-04-06T19:47:34.822Z,4.60
2023-04-06T19:50:03.077Z,4.90
2023-04-06T19:52:32.710Z,4.50
2023-04-06T19:55:00.944Z,4.67
2023-04-06T19:57:29.142Z,4.83
2023-04-06T19:59:57.374Z,4.80
2023-04-06T20:02:25.779Z,5.07
2023-04-06T20:04:54.419Z,4.73
2023-04-06T20:07:22.626Z,5.53
2023-04-06T20:09:52.197Z,4.53
2023-04-06T20:12:20.345Z,5.07
2023-04-06T20:14:48.516Z,5.27
2023-04-06T20:17:16.673Z,4.77
2023-04-06T20:19:44.806Z,5.50
2023-04-06T20:22:13.137Z,4.90
2023-04-06T20:24:41.286Z,5.00
2023-04-06T20:27:10.959Z,5.13
2023-04-06T20:29:39.208Z,4.87
2023-04-06T20:32:07.591Z,5.50
2023-04-06T20:34:36.692Z,5.23
2023-04-06T20:37:05.293Z,5.37
2023-04-06T20:39:33.519Z,5.70
2023-04-06T20:42:01.973Z,6.00
2023-04-06T20:44:31.527Z,5.30
2023-04-06T20:46:59.825Z,5.43
2023-04-06T20:49:28.105Z,5.43
2023-04-06T20:51:56.446Z,5.30
2023-04-06T20:54:25.573Z,5.60
2023-04-06T20:56:53.753Z,5.77
2023-04-06T20:59:21.894Z,5.80
2023-04-06T21:01:51.494Z,6.17
2023-04-06T21:04:23.222Z,5.67
2023-04-06T21:06:51.570Z,6.20
2023-04-06T21:09:20.693Z,6.07
2023-04-06T21:11:48.856Z,5.57
2023-04-06T21:14:18.814Z,6.03
2023-04-06T21:16:47.837Z,6.67
2023-04-06T21:19:17.397Z,6.60
2023-04-06T21:21:45.584Z,6.30
2023-04-06T21:24:13.733Z,6.43
2023-04-06T21:26:41.893Z,6.60
2023-04-06T21:29:10.290Z,6.20
2023-04-06T21:31:41.186Z,6.50
2023-04-06T21:34:12.761Z,6.50
2023-04-06T21:36:42.724Z,6.37
2023-04-06T21:39:10.958Z,6.50
2023-04-06T21:41:40.293Z,6.07
2023-04-06T21:44:08.475Z,6.57
2023-04-06T21:46:36.665Z,6.43
2023-04-06T21:49:04.900Z,6.33
2023-04-06T21:51:33.210Z,6.23
2023-04-06T21:54:02.836Z,5.90
2023-04-06T21:56:30.978Z,5.67
2023-04-06T21:58:59.205Z,6.37
2023-04-06T22:01:28.161Z,5.63
2023-04-06T22:03:56.487Z,6.00
2023-04-06T22:06:25.584Z,6.07
2023-04-06T22:08:53.795Z,6.40
2023-04-06T22:11:23.360Z,6.67
2023-04-06T22:13:51.504Z,6.47
2023-04-06T22:16:19.720Z,7.80
2023-04-06T22:18:47.907Z,7.27
2023-04-06T22:21:16.118Z,6.53
2023-04-06T22:23:44.271Z,7.20
2023-04-06T22:26:12.697Z,7.80
2023-04-06T22:28:42.363Z,7.57
2023-04-06T22:31:10.642Z,7.60
2023-04-06T22:33:38.848Z,8.23
2023-04-06T22:36:07.316Z,8.60
2023-04-06T22:38:35.706Z,8.07
2023-04-06T22:41:04.473Z,9.67
2023-04-06T22:43:33.846Z,8.47
2023-04-06T22:46:03.355Z,8.70
2023-04-06T22:48:31.752Z,9.50
2023-04-06T22:50:59.984Z,9.27
2023-04-06T22:53:28.144Z,9.03
2023-04-06T22:55:56.693Z,9.20
2023-04-06T22:58:24.930Z,9.70
2023-04-06T23:00:53.082Z,9.27
2023-04-06T23:03:22.698Z,8.93
2023-04-06T23:05:51.034Z,9.67
2023-04-06T23:08:19.213Z,8.47
2023-04-06T23:10:47.381Z,9.43
2023-04-06T23:13:15.531Z,8.83
2023-04-06T23:15:43.898Z,9.13
2023-04-06T23:18:12.089Z,8.53
2023-04-06T23:20:42.244Z,8.63
2023-04-06T23:23:10.451Z,8.03
2023-04-06T23:25:38.619Z,7.87
2023-04-06T23:28:06.777Z,8.43
2023-04-06T23:30:35.001Z,9.17
2023-04-06T23:33:03.197Z,8.43
2023-04-06T23:35:31.479Z,8.97
2023-04-06T23:38:01.170Z,8.40
2023-04-06T23:40:29.422Z,9.10
2023-04-06T23:42:57.605Z,9.20
2023-04-06T23:45:25.748Z,8.77
2023-04-06T23:47:53.948Z,9.67
2023-04-06T23:50:22.208Z,9.77
2023-04-06T23:52:50.600Z,9.07
2023-04-06T23:55:20.315Z,9.47
2023-04-06T23:57:48.471Z,8.83
